createdAt,value
2018-07-02T00:00:41.443Z,16.49
2018-07-02T00:03:09.495Z,16.43
2018-07-02T00:05:49.052Z,16.39
2018-07-02T00:19:41.997Z,16.03
2018-07-02T00:22:10.337Z,16.01
2018-07-02T00:24:38.397Z,15.96
2018-07-02T00:27:06.571Z,15.90
2018-07-02T00:29:34.698Z,15.87
2018-07-02T00:32:02.805Z,15.83
2018-07-02T00:34:30.904Z,15.80
2018-07-02T00:36:58.948Z,15.78
2018-07-02T00:39:27.012Z,15.74
2018-07-02T00:41:55.075Z,15.71
2018-07-02T00:44:23.132Z,15.69
2018-07-02T00:46:51.173Z,15.66
2018-07-02T00:49:19.235Z,15.63
2018-07-02T00:51:47.284Z,15.62
2018-07-02T00:54:15.371Z,15.58
2018-07-02T00:56:43.416Z,15.56
2018-07-02T00:59:11.548Z,15.51
2018-07-02T01:01:39.638Z,15.47
2018-07-02T01:04:07.764Z,15.41
2018-07-02T01:06:35.819Z,15.36
2018-07-02T01:09:05.192Z,15.31
2018-07-02T01:11:33.284Z,15.28
2018-07-02T01:14:01.325Z,15.24
2018-07-02T01:16:29.372Z,15.19
2018-07-02T01:18:57.428Z,15.13
2018-07-02T01:21:25.496Z,15.07
2018-07-02T01:23:53.571Z,14.98
2018-07-02T01:26:21.623Z,14.90
2018-07-02T01:28:49.673Z,14.84
2018-07-02T01:31:17.724Z,14.79
2018-07-02T01:33:45.779Z,14.74
2018-07-02T01:36:13.828Z,14.67
2018-07-02T01:38:41.916Z,14.63
2018-07-02T01:41:09.963Z,14.57
2018-07-02T01:43:38.028Z,14.55
2018-07-02T01:46:06.084Z,14.50
2018-07-02T01:48:34.134Z,14.45
2018-07-02T01:51:02.179Z,14.42
2018-07-02T01:53:30.228Z,14.38
2018-07-02T01:55:58.320Z,14.36
2018-07-02T01:58:26.372Z,14.29
2018-07-02T02:00:54.423Z,14.23
2018-07-02T02:03:22.469Z,14.19
2018-07-02T02:05:50.520Z,14.16
2018-07-02T02:08:18.553Z,14.13
2018-07-02T02:10:46.607Z,14.08
2018-07-02T02:13:14.652Z,14.06
2018-07-02T02:15:42.708Z,14.03
2018-07-02T02:18:10.754Z,14.00
2018-07-02T02:20:38.828Z,13.98
2018-07-02T02:23:06.860Z,13.95
2018-07-02T02:25:34.921Z,13.91
2018-07-02T02:28:02.979Z,13.89
2018-07-02T02:30:31.042Z,13.86
2018-07-02T02:32:59.088Z,13.80
2018-07-02T02:35:27.154Z,13.75
2018-07-02T02:37:55.188Z,13.71
2018-07-02T02:40:23.244Z,13.67
2018-07-02T02:42:51.296Z,13.65
2018-07-02T02:45:19.369Z,13.64
2018-07-02T02:47:47.461Z,13.65
2018-07-02T02:50:15.458Z,13.64
2018-07-02T02:52:43.499Z,13.60
2018-07-02T02:55:11.540Z,13.57
2018-07-02T02:57:39.593Z,13.53
2018-07-02T03:00:07.640Z,13.48
2018-07-02T03:02:35.680Z,13.47
2018-07-02T03:05:03.728Z,13.43
2018-07-02T03:07:31.763Z,13.42
2018-07-02T03:09:59.817Z,13.39
2018-07-02T03:12:27.856Z,13.37
2018-07-02T03:14:55.907Z,13.35
2018-07-02T03:17:23.950Z,13.32
2018-07-02T03:19:52.053Z,13.30
2018-07-02T03:22:20.120Z,13.28
2018-07-02T03:24:48.173Z,13.25
2018-07-02T03:27:16.213Z,13.23
2018-07-02T03:29:44.249Z,13.21
2018-07-02T03:32:12.319Z,13.16
2018-07-02T03:34:40.364Z,13.13
2018-07-02T03:37:08.404Z,13.13
2018-07-02T03:39:36.489Z,13.11
2018-07-02T03:42:04.528Z,13.09
2018-07-02T03:44:32.591Z,13.11
2018-07-02T03:47:00.658Z,13.13
2018-07-02T03:49:28.703Z,13.15
2018-07-02T03:51:56.786Z,13.17
2018-07-02T03:54:24.823Z,13.18
2018-07-02T03:56:52.908Z,13.21
2018-07-02T03:59:20.943Z,13.25
2018-07-02T04:01:48.993Z,13.28
2018-07-02T04:04:17.077Z,13.31
2018-07-02T04:06:45.143Z,13.34
2018-07-02T04:09:14.099Z,13.36
2018-07-02T04:11:42.481Z,13.41
2018-07-02T04:14:10.565Z,13.44
2018-07-02T04:16:39.041Z,13.48
2018-07-02T04:19:10.073Z,13.55
2018-07-02T04:21:38.962Z,13.60
2018-07-02T04:24:07.327Z,13.66
2018-07-02T04:26:35.396Z,13.73
2018-07-02T04:29:03.685Z,13.79
2018-07-02T04:31:31.727Z,13.85
2018-07-02T04:33:59.839Z,13.93
2018-07-02T04:36:28.088Z,14.02
2018-07-02T04:38:56.169Z,14.18
2018-07-02T04:41:24.204Z,14.33
2018-07-02T04:43:52.412Z,14.53
2018-07-02T04:46:20.512Z,14.69
2018-07-02T04:48:48.581Z,14.85
2018-07-02T04:51:16.712Z,15.04
2018-07-02T04:53:44.820Z,15.13
2018-07-02T04:56:12.852Z,15.20
2018-07-02T04:58:41.132Z,15.28
2018-07-02T05:01:09.912Z,15.38
2018-07-02T05:03:38.191Z,15.54
2018-07-02T05:06:06.783Z,15.69
2018-07-02T05:08:34.824Z,15.84
2018-07-02T05:11:03.120Z,16.01
2018-07-02T05:13:31.203Z,16.24
2018-07-02T05:15:59.268Z,16.48
2018-07-02T05:18:27.359Z,16.70
2018-07-02T05:20:55.400Z,16.90
2018-07-02T05:23:23.444Z,17.07
2018-07-02T05:25:51.546Z,17.28
2018-07-02T05:28:19.621Z,17.46
2018-07-02T05:30:47.672Z,17.53
2018-07-02T05:33:15.722Z,17.60
2018-07-02T05:35:43.790Z,17.60
2018-07-02T05:38:11.828Z,17.63
2018-07-02T05:40:39.869Z,17.69
2018-07-02T05:43:07.908Z,17.76
2018-07-02T05:45:35.944Z,17.82
2018-07-02T05:48:04.047Z,17.90
2018-07-02T05:50:32.088Z,17.99
2018-07-02T05:53:00.140Z,18.04
2018-07-02T05:55:28.284Z,18.13
2018-07-02T05:57:56.336Z,18.22
2018-07-02T06:00:24.425Z,18.32
2018-07-02T06:02:52.456Z,18.47
2018-07-02T06:05:20.492Z,18.57
2018-07-02T06:07:48.693Z,18.67
2018-07-02T06:10:16.729Z,18.73
2018-07-02T06:12:44.784Z,18.81
2018-07-02T06:15:12.832Z,18.90
2018-07-02T06:17:40.891Z,19.01
2018-07-02T06:20:08.944Z,19.07
2018-07-02T06:22:36.983Z,19.16
2018-07-02T06:25:05.367Z,19.26
2018-07-02T06:27:33.416Z,19.38
2018-07-02T06:30:01.469Z,19.51
2018-07-02T06:32:29.504Z,19.65
2018-07-02T06:34:57.571Z,19.74
2018-07-02T06:37:25.632Z,19.86
2018-07-02T06:39:53.689Z,19.97
2018-07-02T06:42:21.727Z,20.10
2018-07-02T06:44:49.775Z,20.23
2018-07-02T06:47:17.885Z,20.36
2018-07-02T06:49:45.932Z,20.51
2018-07-02T06:52:13.990Z,20.68
2018-07-02T06:54:42.071Z,20.87
2018-07-02T06:57:10.136Z,21.09
2018-07-02T06:59:38.180Z,21.20
2018-07-02T07:02:06.269Z,21.33
2018-07-02T07:04:34.323Z,21.49
2018-07-02T07:07:02.408Z,21.64
2018-07-02T07:09:30.787Z,21.84
2018-07-02T07:11:58.861Z,21.98
2018-07-02T07:14:26.905Z,22.05
2018-07-02T07:16:55.016Z,22.19
2018-07-02T07:19:23.144Z,22.35
2018-07-02T07:21:51.224Z,22.50
2018-07-02T07:24:19.320Z,22.69
2018-07-02T07:26:47.385Z,22.83
2018-07-02T07:29:15.464Z,22.94
2018-07-02T07:31:43.564Z,23.08
2018-07-02T07:34:11.636Z,23.22
2018-07-02T07:36:39.701Z,23.41
2018-07-02T07:39:09.072Z,23.58
2018-07-02T07:41:37.188Z,23.76
2018-07-02T07:44:05.285Z,23.94
2018-07-02T07:46:33.345Z,24.09
2018-07-02T07:49:01.405Z,24.22
2018-07-02T07:51:29.447Z,24.35
2018-07-02T07:53:57.486Z,24.52
2018-07-02T07:56:25.557Z,24.74
2018-07-02T07:58:53.692Z,24.88
2018-07-02T08:01:21.894Z,25.02
2018-07-02T08:03:50.080Z,25.31
2018-07-02T08:06:18.343Z,25.58
2018-07-02T08:08:46.384Z,25.75
2018-07-02T08:11:14.449Z,25.91
2018-07-02T08:13:42.517Z,26.15
2018-07-02T08:16:10.589Z,26.42
2018-07-02T08:18:38.698Z,26.68
2018-07-02T08:21:06.767Z,26.87
2018-07-02T08:23:34.821Z,27.02
2018-07-02T08:26:02.945Z,27.14
2018-07-02T08:28:31.037Z,27.27
2018-07-02T08:30:59.084Z,27.43
2018-07-02T08:33:27.236Z,27.67
2018-07-02T08:35:55.295Z,27.92
2018-07-02T08:38:23.340Z,28.13
2018-07-02T08:40:51.641Z,28.33
2018-07-02T08:43:19.692Z,28.41
2018-07-02T08:45:47.752Z,28.63
2018-07-02T08:48:15.792Z,28.89
2018-07-02T08:50:43.894Z,29.09
2018-07-02T08:53:11.940Z,29.06
2018-07-02T08:55:39.996Z,28.97
2018-07-02T08:58:08.076Z,29.01
2018-07-02T09:00:36.111Z,29.16
2018-07-02T09:03:04.294Z,29.24
2018-07-02T09:05:32.351Z,29.34
2018-07-02T09:08:00.406Z,29.57
2018-07-02T09:10:28.645Z,29.68
2018-07-02T09:12:56.508Z,29.81
2018-07-02T09:15:24.569Z,29.97
2018-07-02T09:17:52.632Z,29.93
2018-07-02T09:20:20.680Z,29.96
2018-07-02T09:22:48.852Z,30.13
2018-07-02T09:25:16.812Z,30.04
2018-07-02T09:27:44.843Z,30.14
2018-07-02T09:30:12.917Z,30.13
2018-07-02T09:32:40.984Z,29.62
2018-07-02T09:35:09.053Z,29.57
2018-07-02T09:37:37.104Z,29.84
2018-07-02T09:40:05.160Z,30.16
2018-07-02T09:42:33.324Z,30.44
2018-07-02T09:45:01.392Z,30.77
2018-07-02T09:47:29.631Z,31.11
2018-07-02T09:49:57.684Z,31.44
2018-07-02T09:52:25.759Z,31.67
2018-07-02T09:54:53.820Z,31.60
2018-07-02T09:57:21.882Z,31.42
2018-07-02T09:59:49.916Z,31.60
2018-07-02T10:02:18.003Z,31.96
2018-07-02T10:04:46.055Z,31.82
2018-07-02T10:07:14.125Z,31.17
2018-07-02T10:09:42.191Z,30.91
2018-07-02T10:12:10.257Z,30.40
2018-07-02T10:14:38.293Z,30.00
2018-07-02T10:17:06.342Z,29.76
2018-07-02T10:19:34.383Z,29.62
2018-07-02T10:22:02.449Z,29.30
2018-07-02T10:24:30.492Z,29.15
2018-07-02T10:26:58.563Z,29.11
2018-07-02T10:29:26.621Z,29.32
2018-07-02T10:31:54.736Z,29.15
2018-07-02T10:34:22.820Z,29.57
2018-07-02T10:36:50.936Z,30.13
2018-07-02T10:39:18.971Z,30.61
2018-07-02T10:41:47.069Z,31.05
2018-07-02T10:44:15.131Z,31.41
2018-07-02T10:46:43.220Z,31.51
2018-07-02T10:49:11.253Z,31.44
2018-07-02T10:51:39.376Z,31.71
2018-07-02T10:54:07.405Z,32.01
2018-07-02T10:56:35.504Z,32.40
2018-07-02T10:59:03.968Z,32.71
2018-07-02T11:01:32.040Z,33.02
2018-07-02T11:04:00.093Z,33.27
2018-07-02T11:06:28.156Z,33.27
2018-07-02T11:08:56.224Z,33.20
2018-07-02T11:11:24.361Z,33.33
2018-07-02T11:13:52.405Z,33.12
2018-07-02T11:16:20.474Z,33.20
2018-07-02T11:18:48.528Z,33.45
2018-07-02T11:21:16.584Z,32.92
2018-07-02T11:23:44.928Z,32.38
2018-07-02T11:26:12.962Z,32.39
2018-07-02T11:28:41.017Z,32.67
2018-07-02T11:31:09.081Z,32.80
2018-07-02T11:33:37.120Z,32.43
2018-07-02T11:36:05.231Z,31.99
2018-07-02T11:38:33.286Z,31.64
2018-07-02T11:41:01.356Z,31.59
2018-07-02T11:43:29.415Z,32.08
2018-07-02T11:45:57.498Z,32.38
2018-07-02T11:48:25.592Z,31.96
2018-07-02T11:50:53.664Z,32.06
2018-07-02T11:53:21.724Z,32.52
2018-07-02T11:55:49.778Z,32.89
2018-07-02T11:58:17.859Z,33.22
2018-07-02T12:00:45.896Z,33.54
2018-07-02T12:03:14.113Z,33.85
2018-07-02T12:05:42.355Z,33.70
2018-07-02T12:08:10.440Z,33.21
2018-07-02T12:10:38.506Z,32.76
2018-07-02T12:13:06.593Z,32.44
2018-07-02T12:15:34.698Z,32.17
2018-07-02T12:18:02.748Z,32.24
2018-07-02T12:20:30.785Z,32.42
2018-07-02T12:22:58.865Z,32.82
2018-07-02T12:25:26.899Z,32.64
2018-07-02T12:27:55.036Z,32.61
2018-07-02T12:30:23.098Z,32.95
2018-07-02T12:32:51.164Z,33.00
2018-07-02T12:35:19.302Z,32.54
2018-07-02T12:37:47.408Z,32.08
2018-07-02T12:40:15.468Z,31.76
2018-07-02T12:42:43.536Z,31.87
2018-07-02T12:45:11.608Z,32.30
2018-07-02T12:47:39.688Z,32.67
2018-07-02T12:50:07.932Z,32.90
2018-07-02T12:52:35.976Z,33.05
2018-07-02T12:55:04.046Z,33.28
2018-07-02T12:57:32.154Z,33.38
2018-07-02T13:00:00.214Z,33.50
2018-07-02T13:02:28.292Z,33.62
2018-07-02T13:04:56.349Z,33.84
2018-07-02T13:07:24.530Z,33.90
2018-07-02T13:09:52.585Z,33.92
2018-07-02T13:12:20.680Z,34.01
2018-07-02T13:14:48.743Z,34.22
2018-07-02T13:17:16.809Z,34.33
2018-07-02T13:19:44.880Z,34.42
2018-07-02T13:22:12.908Z,34.56
2018-07-02T13:24:41.094Z,34.58
2018-07-02T13:27:09.087Z,34.12
2018-07-02T13:29:37.147Z,33.49
2018-07-02T13:32:05.235Z,32.92
2018-07-02T13:34:33.311Z,32.61
2018-07-02T13:37:01.365Z,32.38
2018-07-02T13:39:29.444Z,32.43
2018-07-02T13:41:57.521Z,32.48
2018-07-02T13:44:25.620Z,32.71
2018-07-02T13:46:53.692Z,32.84
2018-07-02T13:49:21.747Z,33.05
2018-07-02T13:51:49.798Z,33.25
2018-07-02T13:54:17.860Z,33.34
2018-07-02T13:56:45.936Z,33.37
2018-07-02T13:59:13.998Z,33.51
2018-07-02T14:01:42.040Z,33.34
2018-07-02T14:04:10.109Z,33.34
2018-07-02T14:06:38.148Z,33.59
2018-07-02T14:09:08.552Z,33.70
2018-07-02T14:11:36.705Z,33.78
2018-07-02T14:14:04.810Z,33.80
2018-07-02T14:16:32.860Z,33.90
2018-07-02T14:19:01.016Z,33.89
2018-07-02T14:21:29.176Z,33.76
2018-07-02T14:23:57.356Z,33.51
2018-07-02T14:26:25.444Z,33.36
2018-07-02T14:28:53.837Z,33.40
2018-07-02T14:31:21.880Z,33.44
2018-07-02T14:33:49.943Z,33.50
2018-07-02T14:36:18.015Z,33.58
2018-07-02T14:38:46.072Z,33.62
2018-07-02T14:41:14.196Z,33.59
2018-07-02T14:43:42.249Z,33.48
2018-07-02T14:46:10.295Z,33.45
2018-07-02T14:48:38.381Z,33.53
2018-07-02T14:51:06.484Z,33.49
2018-07-02T14:53:34.532Z,33.32
2018-07-02T14:56:02.685Z,33.31
2018-07-02T14:58:30.955Z,33.37
2018-07-02T15:00:59.217Z,33.31
2018-07-02T15:03:27.500Z,33.27
2018-07-02T15:05:55.601Z,33.30
2018-07-02T15:08:23.872Z,33.27
2018-07-02T15:10:51.983Z,33.11
2018-07-02T15:13:20.093Z,32.97
2018-07-02T15:15:48.149Z,32.79
2018-07-02T15:18:16.298Z,32.79
2018-07-02T15:20:44.298Z,32.53
2018-07-02T15:23:12.668Z,32.31
2018-07-02T15:25:40.752Z,32.31
2018-07-02T15:28:08.796Z,32.41
2018-07-02T15:30:36.893Z,32.37
2018-07-02T15:33:04.992Z,32.21
2018-07-02T15:35:33.052Z,32.35
2018-07-02T15:38:01.127Z,32.40
2018-07-02T15:40:29.291Z,32.41
2018-07-02T15:42:57.336Z,32.26
2018-07-02T15:45:25.384Z,32.15
2018-07-02T15:47:53.428Z,32.02
2018-07-02T15:50:21.480Z,31.91
2018-07-02T15:52:49.572Z,31.81
2018-07-02T15:55:17.633Z,31.74
2018-07-02T15:57:45.695Z,31.62
2018-07-02T16:00:14.144Z,31.40
2018-07-02T16:02:42.175Z,31.32
2018-07-02T16:05:10.279Z,31.35
2018-07-02T16:07:38.356Z,31.26
2018-07-02T16:10:06.433Z,31.05
2018-07-02T16:12:34.496Z,30.87
2018-07-02T16:15:02.569Z,30.82
2018-07-02T16:17:30.702Z,30.59
2018-07-02T16:19:58.686Z,30.31
2018-07-02T16:22:26.823Z,30.17
2018-07-02T16:24:54.872Z,30.07
2018-07-02T16:27:22.929Z,29.94
2018-07-02T16:29:50.974Z,29.78
2018-07-02T16:32:19.047Z,29.74
2018-07-02T16:34:47.128Z,29.67
2018-07-02T16:37:15.180Z,29.56
2018-07-02T16:39:43.259Z,29.30
2018-07-02T16:42:11.328Z,29.25
2018-07-02T16:44:39.371Z,29.21
2018-07-02T16:47:07.472Z,29.11
2018-07-02T16:49:35.543Z,29.03
2018-07-02T16:52:03.609Z,28.85
2018-07-02T16:54:31.648Z,28.77
2018-07-02T16:56:59.709Z,28.66
2018-07-02T16:59:27.813Z,28.65
2018-07-02T17:01:55.860Z,28.55
2018-07-02T17:04:23.903Z,28.42
2018-07-02T17:06:51.944Z,28.29
2018-07-02T17:09:19.985Z,28.23
2018-07-02T17:11:48.067Z,28.24
2018-07-02T17:14:16.112Z,28.14
2018-07-02T17:16:44.219Z,28.06
2018-07-02T17:19:12.271Z,27.97
2018-07-02T17:21:40.318Z,27.88
2018-07-02T17:24:08.361Z,27.74
2018-07-02T17:26:36.492Z,27.64
2018-07-02T17:29:04.532Z,27.54
2018-07-02T17:31:32.627Z,27.43
2018-07-02T17:34:00.685Z,27.41
2018-07-02T17:36:28.735Z,27.36
2018-07-02T17:38:56.844Z,27.35
2018-07-02T17:41:24.896Z,27.31
2018-07-02T17:43:53.328Z,27.28
2018-07-02T17:46:22.512Z,27.27
2018-07-02T17:48:50.654Z,27.25
2018-07-02T17:51:18.723Z,27.20
2018-07-02T17:53:46.812Z,27.21
2018-07-02T17:56:14.870Z,27.15
2018-07-02T17:58:42.925Z,27.11
2018-07-02T18:01:11.050Z,27.15
2018-07-02T18:03:39.071Z,27.17
2018-07-02T18:06:07.128Z,27.10
2018-07-02T18:08:35.172Z,27.06
2018-07-02T18:11:03.292Z,27.04
2018-07-02T18:13:31.508Z,27.00
2018-07-02T18:15:59.636Z,26.96
2018-07-02T18:18:27.714Z,26.97
2018-07-02T18:20:55.769Z,26.99
2018-07-02T18:23:23.848Z,26.91
2018-07-02T18:25:51.928Z,26.89
2018-07-02T18:28:19.975Z,26.87
2018-07-02T18:30:48.018Z,26.80
2018-07-02T18:33:16.125Z,26.72
2018-07-02T18:35:44.201Z,26.66
2018-07-02T18:38:12.236Z,26.58
2018-07-02T18:40:40.276Z,26.55
2018-07-02T18:43:08.316Z,26.51
2018-07-02T18:45:36.368Z,26.50
2018-07-02T18:48:04.415Z,26.46
2018-07-02T18:50:32.461Z,26.43
2018-07-02T18:53:00.587Z,26.43
2018-07-02T18:55:28.674Z,26.39
2018-07-02T18:57:56.752Z,26.32
2018-07-02T19:00:24.874Z,26.26
2018-07-02T19:02:52.965Z,26.24
2018-07-02T19:05:21.035Z,26.17
2018-07-02T19:07:49.420Z,26.11
2018-07-02T19:10:17.492Z,26.06
2018-07-02T19:12:45.560Z,26.00
2018-07-02T19:15:13.612Z,25.95
2018-07-02T19:17:41.684Z,25.89
2018-07-02T19:20:09.771Z,25.83
2018-07-02T19:22:37.833Z,25.75
2018-07-02T19:25:06.500Z,25.73
2018-07-02T19:27:34.584Z,25.72
2018-07-02T19:30:02.647Z,25.65
2018-07-02T19:32:30.713Z,25.62
2018-07-02T19:34:58.760Z,25.60
2018-07-02T19:37:26.866Z,25.57
2018-07-02T19:39:54.928Z,25.56
2018-07-02T19:42:22.967Z,25.52
2018-07-02T19:44:51.019Z,25.50
2018-07-02T19:47:19.173Z,25.47
2018-07-02T19:49:47.304Z,25.45
2018-07-02T19:52:15.548Z,25.40
2018-07-02T19:54:43.654Z,25.36
2018-07-02T19:57:11.741Z,25.32
2018-07-02T19:59:39.795Z,25.30
2018-07-02T20:02:07.876Z,25.28
2018-07-02T20:04:35.935Z,25.28
2018-07-02T20:07:04.092Z,25.24
2018-07-02T20:09:32.078Z,25.21
2018-07-02T20:12:00.161Z,25.16
2018-07-02T20:14:28.224Z,25.11
2018-07-02T20:16:56.293Z,25.07
2018-07-02T20:19:24.369Z,25.01
2018-07-02T20:21:52.425Z,24.92
2018-07-02T20:24:20.505Z,24.82
2018-07-02T20:26:48.620Z,24.74
2018-07-02T20:29:16.936Z,24.63
2018-07-02T20:31:45.046Z,24.57
2018-07-02T20:34:13.060Z,24.53
2018-07-02T20:36:41.100Z,24.31
2018-07-02T20:39:10.555Z,24.00
2018-07-02T20:41:38.648Z,23.72
2018-07-02T20:44:06.704Z,23.57
2018-07-02T20:46:35.555Z,23.46
2018-07-02T20:49:04.091Z,23.44
2018-07-02T20:51:32.430Z,23.40
2018-07-02T20:54:00.722Z,23.35
2018-07-02T20:56:28.753Z,23.11
2018-07-02T20:58:56.815Z,22.86
2018-07-02T21:01:24.929Z,22.60
2018-07-02T21:03:52.924Z,22.36
2018-07-02T21:06:21.252Z,22.20
2018-07-02T21:08:49.297Z,22.06
2018-07-02T21:11:17.351Z,21.91
2018-07-02T21:13:45.405Z,21.79
2018-07-02T21:16:13.432Z,21.65
2018-07-02T21:18:41.483Z,21.54
2018-07-02T21:21:09.553Z,21.44
2018-07-02T21:23:37.571Z,21.35
2018-07-02T21:26:05.680Z,21.25
2018-07-02T21:28:33.719Z,21.14
2018-07-02T21:31:01.759Z,21.06
2018-07-02T21:33:29.808Z,21.00
2018-07-02T21:35:57.856Z,20.93
2018-07-02T21:38:25.892Z,20.83
2018-07-02T21:40:53.953Z,20.74
2018-07-02T21:43:21.996Z,20.67
2018-07-02T21:45:50.072Z,20.61
2018-07-02T21:48:18.131Z,20.56
2018-07-02T21:50:46.153Z,20.52
2018-07-02T21:53:14.188Z,20.47
2018-07-02T21:55:42.228Z,20.43
2018-07-02T21:58:10.261Z,20.38
2018-07-02T22:00:42.481Z,20.29
2018-07-02T22:03:10.524Z,20.21
2018-07-02T22:05:38.558Z,20.11
2018-07-02T22:08:06.599Z,20.03
2018-07-02T22:10:34.645Z,19.95
2018-07-02T22:13:02.943Z,19.87
2018-07-02T22:15:30.976Z,19.79
2018-07-02T22:17:59.009Z,19.73
2018-07-02T22:20:27.049Z,19.66
2018-07-02T22:22:55.077Z,19.61
2018-07-02T22:25:23.236Z,19.55
2018-07-02T22:27:51.233Z,19.46
2018-07-02T22:30:19.301Z,19.40
2018-07-02T22:32:47.335Z,19.33
2018-07-02T22:35:15.383Z,19.29
2018-07-02T22:37:43.425Z,19.23
2018-07-02T22:40:12.637Z,19.16
2018-07-02T22:42:40.661Z,19.08
2018-07-02T22:45:08.725Z,19.02
2018-07-02T22:47:36.936Z,18.95
2018-07-02T22:50:05.020Z,18.91
2018-07-02T22:52:33.044Z,18.84
2018-07-02T22:55:01.072Z,18.78
2018-07-02T22:57:29.112Z,18.74
2018-07-02T22:59:57.167Z,18.70
2018-07-02T23:02:25.206Z,18.66
2018-07-02T23:04:53.244Z,18.62
2018-07-02T23:07:21.273Z,18.57
2018-07-02T23:09:49.320Z,18.49
2018-07-02T23:12:17.348Z,18.46
2018-07-02T23:14:45.433Z,18.39
2018-07-02T23:17:13.482Z,18.35
2018-07-02T23:19:41.520Z,18.31
2018-07-02T23:22:09.548Z,18.28
2018-07-02T23:24:37.596Z,18.22
2018-07-02T23:27:05.639Z,18.16
2018-07-02T23:29:33.700Z,18.09
2018-07-02T23:32:01.720Z,18.03
2018-07-02T23:34:29.828Z,17.99
2018-07-02T23:36:57.867Z,17.92
2018-07-02T23:39:25.899Z,17.85
2018-07-02T23:41:53.931Z,17.80
2018-07-02T23:44:21.973Z,17.72
2018-07-02T23:46:50.036Z,17.67
2018-07-02T23:49:18.092Z,17.59
2018-07-02T23:51:46.119Z,17.53
2018-07-02T23:54:14.186Z,17.47
2018-07-02T23:56:42.229Z,17.42
2018-07-02T23:59:10.265Z,17.33
